This is the latest recevied weather packets stored in our database for station/object YO2MD-11. If no packets are shown the sender has not sent any weather packets the latest 1 day(s).
| Time | Temp. | Humidity | Pressure | Rain* | Wind** | Luminosity | Snow |
|---|---|---|---|---|---|---|---|
| 1778085328 | 23.89° C | 100% | 703 hPa | - | - | - | - |
| 1778083527 | 24.44° C | 100% | 704 hPa | - | - | - | - |
| 1778070919 | 24.44° C | 100% | 704 hPa | - | - | - | - |
| 1778069118 | 24.44° C | 100% | 704 hPa | - | - | - | - |
| 1778061913 | 22.22° C | 100% | 701 hPa | - | - | - | - |
| 1778058311 | 21.11° C | 100% | 700 hPa | - | - | - | - |
| 1778056509 | 21.67° C | 100% | 700 hPa | - | - | - | - |
| 1778049305 | 18.33° C | 100% | 697 hPa | - | - | - | - |
| 1778047504 | 16.67° C | 100% | 695 hPa | - | - | - | - |
| 1778045703 | 14.44° C | 100% | 693 hPa | - | - | - | - |
| 1778040299 | 15° C | 100% | 693 hPa | - | - | - | - |
| 1778038498 | 15.56° C | 100% | 694 hPa | - | - | - | - |
| 1778036697 | 15.56° C | 100% | 694 hPa | - | - | - | - |
| 1778034896 | 16.11° C | 100% | 695 hPa | - | - | - | - |
| 1778033095 | 16.67° C | 100% | 695 hPa | - | - | - | - |
| 1778031294 | 16.11° C | 100% | 695 hPa | - | - | - | - |
| 1778029493 | 16.67° C | 100% | 696 hPa | - | - | - | - |
| 1778018686 | 18.33° C | 100% | 697 hPa | - | - | - | - |
| 1778016885 | 20.56° C | 100% | 699 hPa | - | - | - | - |
| 1778015084 | 21.67° C | 100% | 701 hPa | - | - | - | - |
| 1778002476 | 24.44° C | 100% | 703 hPa | - | - | - | - |
* Rain since midnight (hover to see other rain measurements)
** Current wind speed in m/s (hover to see current wind gust speed)